sensor_id;sensor_type;location;lat;lon;timestamp;P1;durP1;ratioP1;P2;durP2;ratioP2
70106;SDS011;57473;37.508;15.080;2022-08-19T00:01:32;19.08;;;5.57;;
70106;SDS011;57473;37.508;15.080;2022-08-19T00:04:04;18.95;;;5.35;;
70106;SDS011;57473;37.508;15.080;2022-08-19T00:06:34;19.38;;;5.95;;
70106;SDS011;57473;37.508;15.080;2022-08-19T00:09:04;17.95;;;5.50;;
70106;SDS011;57473;37.508;15.080;2022-08-19T00:11:33;15.13;;;6.22;;
70106;SDS011;57473;37.508;15.080;2022-08-19T00:14:02;13.80;;;5.47;;
70106;SDS011;57473;37.508;15.080;2022-08-19T00:16:31;20.00;;;6.55;;
70106;SDS011;57473;37.508;15.080;2022-08-19T00:18:58;12.35;;;5.25;;
70106;SDS011;57473;37.508;15.080;2022-08-19T00:21:26;15.73;;;6.50;;
70106;SDS011;57473;37.508;15.080;2022-08-19T00:23:54;17.42;;;5.93;;
70106;SDS011;57473;37.508;15.080;2022-08-19T00:26:25;20.48;;;6.10;;
70106;SDS011;57473;37.508;15.080;2022-08-19T00:28:53;23.98;;;6.85;;
70106;SDS011;57473;37.508;15.080;2022-08-19T00:31:21;21.38;;;6.47;;
70106;SDS011;57473;37.508;15.080;2022-08-19T00:33:49;20.08;;;6.68;;
70106;SDS011;57473;37.508;15.080;2022-08-19T00:36:16;16.95;;;7.15;;
70106;SDS011;57473;37.508;15.080;2022-08-19T00:38:46;18.42;;;7.85;;
70106;SDS011;57473;37.508;15.080;2022-08-19T00:41:14;19.50;;;7.50;;
70106;SDS011;57473;37.508;15.080;2022-08-19T00:43:49;21.48;;;8.18;;
70106;SDS011;57473;37.508;15.080;2022-08-19T00:46:29;15.88;;;7.80;;
70106;SDS011;57473;37.508;15.080;2022-08-19T00:48:56;17.27;;;8.60;;
70106;SDS011;57473;37.508;15.080;2022-08-19T00:51:26;18.63;;;7.97;;
70106;SDS011;57473;37.508;15.080;2022-08-19T00:53:56;25.80;;;8.80;;
70106;SDS011;57473;37.508;15.080;2022-08-19T00:56:25;21.27;;;8.88;;
70106;SDS011;57473;37.508;15.080;2022-08-19T00:58:54;21.25;;;8.75;;
70106;SDS011;57473;37.508;15.080;2022-08-19T01:01:25;20.23;;;9.05;;
70106;SDS011;57473;37.508;15.080;2022-08-19T01:03:56;20.10;;;8.88;;
70106;SDS011;57473;37.508;15.080;2022-08-19T01:06:25;16.60;;;8.32;;
70106;SDS011;57473;37.508;15.080;2022-08-19T01:08:53;17.75;;;8.00;;
70106;SDS011;57473;37.508;15.080;2022-08-19T01:11:21;19.45;;;8.50;;
70106;SDS011;57473;37.508;15.080;2022-08-19T01:13:50;14.45;;;7.78;;
70106;SDS011;57473;37.508;15.080;2022-08-19T01:16:19;22.98;;;8.90;;
70106;SDS011;57473;37.508;15.080;2022-08-19T01:18:49;23.30;;;8.77;;
70106;SDS011;57473;37.508;15.080;2022-08-19T01:21:34;28.60;;;9.07;;
70106;SDS011;57473;37.508;15.080;2022-08-19T01:24:13;16.13;;;8.90;;
70106;SDS011;57473;37.508;15.080;2022-08-19T01:26:42;14.75;;;8.10;;
70106;SDS011;57473;37.508;15.080;2022-08-19T01:29:12;16.48;;;8.20;;
70106;SDS011;57473;37.508;15.080;2022-08-19T01:31:40;20.52;;;8.02;;
70106;SDS011;57473;37.508;15.080;2022-08-19T01:34:07;17.77;;;7.47;;
70106;SDS011;57473;37.508;15.080;2022-08-19T01:39:10;21.02;;;8.70;;
70106;SDS011;57473;37.508;15.080;2022-08-19T01:41:41;16.02;;;8.30;;
70106;SDS011;57473;37.508;15.080;2022-08-19T01:44:08;18.98;;;8.52;;
70106;SDS011;57473;37.508;15.080;2022-08-19T01:46:45;17.02;;;8.52;;
70106;SDS011;57473;37.508;15.080;2022-08-19T01:49:17;17.48;;;8.30;;
70106;SDS011;57473;37.508;15.080;2022-08-19T01:51:47;19.40;;;8.23;;
70106;SDS011;57473;37.508;15.080;2022-08-19T01:54:16;27.45;;;10.77;;
70106;SDS011;57473;37.508;15.080;2022-08-19T01:56:55;21.05;;;9.77;;
70106;SDS011;57473;37.508;15.080;2022-08-19T01:59:30;27.20;;;10.27;;
70106;SDS011;57473;37.508;15.080;2022-08-19T02:01:59;21.60;;;9.10;;
70106;SDS011;57473;37.508;15.080;2022-08-19T02:04:26;22.85;;;9.60;;
70106;SDS011;57473;37.508;15.080;2022-08-19T02:06:53;18.33;;;8.38;;
70106;SDS011;57473;37.508;15.080;2022-08-19T02:09:21;18.50;;;8.50;;
70106;SDS011;57473;37.508;15.080;2022-08-19T02:11:48;23.38;;;8.52;;
70106;SDS011;57473;37.508;15.080;2022-08-19T02:14:15;21.60;;;9.30;;
70106;SDS011;57473;37.508;15.080;2022-08-19T02:16:43;20.40;;;8.30;;
70106;SDS011;57473;37.508;15.080;2022-08-19T02:19:10;18.42;;;9.27;;
70106;SDS011;57473;37.508;15.080;2022-08-19T02:21:37;26.17;;;10.85;;
70106;SDS011;57473;37.508;15.080;2022-08-19T02:24:05;25.48;;;10.35;;
70106;SDS011;57473;37.508;15.080;2022-08-19T02:26:32;30.77;;;11.15;;
70106;SDS011;57473;37.508;15.080;2022-08-19T02:29:00;20.52;;;10.23;;
70106;SDS011;57473;37.508;15.080;2022-08-19T02:31:27;28.75;;;10.80;;
70106;SDS011;57473;37.508;15.080;2022-08-19T02:33:55;21.63;;;9.38;;
70106;SDS011;57473;37.508;15.080;2022-08-19T02:36:23;21.75;;;9.98;;
70106;SDS011;57473;37.508;15.080;2022-08-19T02:38:51;23.80;;;9.10;;
70106;SDS011;57473;37.508;15.080;2022-08-19T02:41:29;25.38;;;9.82;;
70106;SDS011;57473;37.508;15.080;2022-08-19T02:43:59;19.95;;;9.57;;
70106;SDS011;57473;37.508;15.080;2022-08-19T02:46:50;25.92;;;9.73;;
70106;SDS011;57473;37.508;15.080;2022-08-19T02:49:18;16.05;;;9.63;;
70106;SDS011;57473;37.508;15.080;2022-08-19T02:51:46;22.10;;;9.60;;
70106;SDS011;57473;37.508;15.080;2022-08-19T02:54:14;24.65;;;9.10;;
70106;SDS011;57473;37.508;15.080;2022-08-19T02:56:43;21.08;;;9.18;;
70106;SDS011;57473;37.508;15.080;2022-08-19T02:59:11;19.23;;;9.60;;
70106;SDS011;57473;37.508;15.080;2022-08-19T03:01:39;17.95;;;9.60;;
70106;SDS011;57473;37.508;15.080;2022-08-19T03:04:09;24.05;;;9.95;;
70106;SDS011;57473;37.508;15.080;2022-08-19T03:09:08;18.60;;;9.85;;
70106;SDS011;57473;37.508;15.080;2022-08-19T03:11:36;20.33;;;8.50;;
70106;SDS011;57473;37.508;15.080;2022-08-19T03:14:05;23.13;;;9.50;;
70106;SDS011;57473;37.508;15.080;2022-08-19T03:16:35;17.80;;;7.90;;
70106;SDS011;57473;37.508;15.080;2022-08-19T03:19:24;20.25;;;8.80;;
70106;SDS011;57473;37.508;15.080;2022-08-19T03:21:52;27.58;;;9.13;;
70106;SDS011;57473;37.508;15.080;2022-08-19T03:24:20;22.52;;;8.60;;
70106;SDS011;57473;37.508;15.080;2022-08-19T03:26:48;20.13;;;8.65;;
70106;SDS011;57473;37.508;15.080;2022-08-19T03:31:57;26.33;;;8.93;;
70106;SDS011;57473;37.508;15.080;2022-08-19T03:34:31;18.45;;;8.43;;
70106;SDS011;57473;37.508;15.080;2022-08-19T03:37:03;16.00;;;7.65;;
70106;SDS011;57473;37.508;15.080;2022-08-19T03:39:33;18.70;;;7.88;;
70106;SDS011;57473;37.508;15.080;2022-08-19T03:42:03;19.00;;;8.00;;
70106;SDS011;57473;37.508;15.080;2022-08-19T03:44:52;17.25;;;7.53;;
70106;SDS011;57473;37.508;15.080;2022-08-19T03:47:19;21.00;;;8.35;;
70106;SDS011;57473;37.508;15.080;2022-08-19T03:49:46;18.45;;;8.50;;
70106;SDS011;57473;37.508;15.080;2022-08-19T03:52:13;15.07;;;8.20;;
70106;SDS011;57473;37.508;15.080;2022-08-19T03:54:42;20.35;;;8.77;;
70106;SDS011;57473;37.508;15.080;2022-08-19T03:57:09;17.02;;;8.90;;
70106;SDS011;57473;37.508;15.080;2022-08-19T03:59:38;15.60;;;8.10;;
70106;SDS011;57473;37.508;15.080;2022-08-19T04:02:07;19.55;;;9.05;;
70106;SDS011;57473;37.508;15.080;2022-08-19T04:04:37;23.58;;;9.40;;
70106;SDS011;57473;37.508;15.080;2022-08-19T04:07:05;19.02;;;9.02;;
70106;SDS011;57473;37.508;15.080;2022-08-19T04:09:34;23.65;;;8.82;;
70106;SDS011;57473;37.508;15.080;2022-08-19T04:12:03;18.80;;;7.93;;
70106;SDS011;57473;37.508;15.080;2022-08-19T04:14:32;15.43;;;7.05;;
70106;SDS011;57473;37.508;15.080;2022-08-19T04:17:00;15.90;;;7.13;;
70106;SDS011;57473;37.508;15.080;2022-08-19T04:19:32;16.98;;;7.38;;
70106;SDS011;57473;37.508;15.080;2022-08-19T04:22:01;17.00;;;6.18;;
70106;SDS011;57473;37.508;15.080;2022-08-19T04:24:29;18.38;;;6.63;;
70106;SDS011;57473;37.508;15.080;2022-08-19T04:26:56;16.02;;;6.35;;
70106;SDS011;57473;37.508;15.080;2022-08-19T04:29:25;17.98;;;6.85;;
70106;SDS011;57473;37.508;15.080;2022-08-19T04:31:54;18.85;;;7.25;;
70106;SDS011;57473;37.508;15.080;2022-08-19T04:34:23;20.83;;;7.53;;
70106;SDS011;57473;37.508;15.080;2022-08-19T04:36:52;24.27;;;7.80;;
70106;SDS011;57473;37.508;15.080;2022-08-19T04:39:23;20.08;;;7.88;;
70106;SDS011;57473;37.508;15.080;2022-08-19T04:42:11;17.33;;;7.53;;
70106;SDS011;57473;37.508;15.080;2022-08-19T04:44:57;17.67;;;8.20;;
70106;SDS011;57473;37.508;15.080;2022-08-19T04:47:25;17.48;;;8.05;;
70106;SDS011;57473;37.508;15.080;2022-08-19T04:50:13;23.45;;;10.07;;
70106;SDS011;57473;37.508;15.080;2022-08-19T04:52:44;25.88;;;9.45;;
70106;SDS011;57473;37.508;15.080;2022-08-19T04:55:11;19.95;;;9.05;;
70106;SDS011;57473;37.508;15.080;2022-08-19T04:57:40;33.42;;;8.52;;
70106;SDS011;57473;37.508;15.080;2022-08-19T05:00:08;22.52;;;8.93;;
70106;SDS011;57473;37.508;15.080;2022-08-19T05:02:37;20.45;;;8.90;;
70106;SDS011;57473;37.508;15.080;2022-08-19T05:05:04;38.33;;;15.75;;
70106;SDS011;57473;37.508;15.080;2022-08-19T05:07:33;20.10;;;9.13;;
70106;SDS011;57473;37.508;15.080;2022-08-19T05:10:02;19.73;;;9.23;;
70106;SDS011;57473;37.508;15.080;2022-08-19T05:12:31;21.92;;;8.63;;
70106;SDS011;57473;37.508;15.080;2022-08-19T05:14:58;20.73;;;9.02;;
70106;SDS011;57473;37.508;15.080;2022-08-19T05:17:26;20.10;;;8.93;;
70106;SDS011;57473;37.508;15.080;2022-08-19T05:20:02;15.80;;;7.88;;
70106;SDS011;57473;37.508;15.080;2022-08-19T05:22:49;18.17;;;7.93;;
70106;SDS011;57473;37.508;15.080;2022-08-19T05:25:17;18.23;;;8.93;;
70106;SDS011;57473;37.508;15.080;2022-08-19T05:27:46;19.35;;;8.18;;
70106;SDS011;57473;37.508;15.080;2022-08-19T05:30:15;18.55;;;8.23;;
70106;SDS011;57473;37.508;15.080;2022-08-19T05:32:43;24.70;;;8.57;;
70106;SDS011;57473;37.508;15.080;2022-08-19T05:35:11;18.42;;;8.75;;
70106;SDS011;57473;37.508;15.080;2022-08-19T05:37:39;25.55;;;7.78;;
70106;SDS011;57473;37.508;15.080;2022-08-19T05:40:07;20.92;;;7.78;;
70106;SDS011;57473;37.508;15.080;2022-08-19T05:42:36;17.40;;;8.15;;
70106;SDS011;57473;37.508;15.080;2022-08-19T05:45:04;14.07;;;7.45;;
70106;SDS011;57473;37.508;15.080;2022-08-19T05:47:31;22.77;;;8.13;;
70106;SDS011;57473;37.508;15.080;2022-08-19T05:49:59;25.05;;;8.20;;
70106;SDS011;57473;37.508;15.080;2022-08-19T05:54:58;20.35;;;7.15;;
70106;SDS011;57473;37.508;15.080;2022-08-19T05:57:26;20.15;;;7.20;;
70106;SDS011;57473;37.508;15.080;2022-08-19T05:59:55;16.02;;;7.57;;
70106;SDS011;57473;37.508;15.080;2022-08-19T06:02:25;22.00;;;7.53;;
70106;SDS011;57473;37.508;15.080;2022-08-19T06:04:53;24.00;;;7.50;;
70106;SDS011;57473;37.508;15.080;2022-08-19T06:07:21;16.80;;;7.00;;
70106;SDS011;57473;37.508;15.080;2022-08-19T06:09:48;21.30;;;6.88;;
70106;SDS011;57473;37.508;15.080;2022-08-19T06:12:30;17.13;;;6.68;;
70106;SDS011;57473;37.508;15.080;2022-08-19T06:15:06;24.35;;;7.25;;
70106;SDS011;57473;37.508;15.080;2022-08-19T06:17:36;15.60;;;7.07;;
70106;SDS011;57473;37.508;15.080;2022-08-19T06:20:05;22.38;;;6.80;;
70106;SDS011;57473;37.508;15.080;2022-08-19T06:22:45;21.13;;;6.22;;
70106;SDS011;57473;37.508;15.080;2022-08-19T06:25:15;15.70;;;6.53;;
70106;SDS011;57473;37.508;15.080;2022-08-19T06:27:45;18.80;;;7.07;;
70106;SDS011;57473;37.508;15.080;2022-08-19T06:30:33;16.15;;;7.05;;
70106;SDS011;57473;37.508;15.080;2022-08-19T06:33:00;22.10;;;6.28;;
70106;SDS011;57473;37.508;15.080;2022-08-19T06:35:27;22.73;;;6.40;;
70106;SDS011;57473;37.508;15.080;2022-08-19T06:37:55;18.70;;;6.78;;
70106;SDS011;57473;37.508;15.080;2022-08-19T06:40:23;24.48;;;6.75;;
70106;SDS011;57473;37.508;15.080;2022-08-19T06:42:50;20.10;;;6.65;;
70106;SDS011;57473;37.508;15.080;2022-08-19T06:45:23;20.10;;;6.15;;
70106;SDS011;57473;37.508;15.080;2022-08-19T06:48:01;19.40;;;6.40;;
70106;SDS011;57473;37.508;15.080;2022-08-19T06:50:29;24.52;;;6.85;;
70106;SDS011;57473;37.508;15.080;2022-08-19T06:52:56;16.77;;;6.18;;
70106;SDS011;57473;37.508;15.080;2022-08-19T06:55:29;23.33;;;6.78;;
70106;SDS011;57473;37.508;15.080;2022-08-19T06:58:01;21.98;;;5.55;;
70106;SDS011;57473;37.508;15.080;2022-08-19T07:00:31;28.45;;;6.30;;
70106;SDS011;57473;37.508;15.080;2022-08-19T07:02:59;19.60;;;6.43;;
70106;SDS011;57473;37.508;15.080;2022-08-19T07:05:37;25.85;;;7.97;;
70106;SDS011;57473;37.508;15.080;2022-08-19T07:08:11;29.23;;;7.35;;
70106;SDS011;57473;37.508;15.080;2022-08-19T07:10:42;24.98;;;6.85;;
70106;SDS011;57473;37.508;15.080;2022-08-19T07:13:10;24.05;;;6.65;;
70106;SDS011;57473;37.508;15.080;2022-08-19T07:15:38;26.25;;;7.22;;
70106;SDS011;57473;37.508;15.080;2022-08-19T07:18:05;22.13;;;6.78;;
70106;SDS011;57473;37.508;15.080;2022-08-19T07:20:37;27.38;;;6.28;;
70106;SDS011;57473;37.508;15.080;2022-08-19T07:23:07;31.73;;;7.67;;
70106;SDS011;57473;37.508;15.080;2022-08-19T07:25:36;25.80;;;6.88;;
70106;SDS011;57473;37.508;15.080;2022-08-19T07:28:06;26.77;;;7.00;;
70106;SDS011;57473;37.508;15.080;2022-08-19T07:30:49;22.30;;;6.18;;
70106;SDS011;57473;37.508;15.080;2022-08-19T07:33:18;28.88;;;7.50;;
70106;SDS011;57473;37.508;15.080;2022-08-19T07:35:45;24.50;;;6.93;;
70106;SDS011;57473;37.508;15.080;2022-08-19T07:38:13;27.20;;;7.57;;
70106;SDS011;57473;37.508;15.080;2022-08-19T07:43:12;24.75;;;7.00;;
70106;SDS011;57473;37.508;15.080;2022-08-19T07:45:43;22.83;;;7.07;;
70106;SDS011;57473;37.508;15.080;2022-08-19T07:48:10;27.23;;;7.65;;
70106;SDS011;57473;37.508;15.080;2022-08-19T07:50:38;21.92;;;6.80;;
70106;SDS011;57473;37.508;15.080;2022-08-19T07:53:05;24.55;;;7.30;;
70106;SDS011;57473;37.508;15.080;2022-08-19T07:55:33;27.95;;;7.65;;
70106;SDS011;57473;37.508;15.080;2022-08-19T07:58:08;22.58;;;7.47;;
70106;SDS011;57473;37.508;15.080;2022-08-19T08:00:36;26.40;;;8.27;;
70106;SDS011;57473;37.508;15.080;2022-08-19T08:03:03;29.23;;;7.82;;
70106;SDS011;57473;37.508;15.080;2022-08-19T08:05:31;29.90;;;9.63;;
70106;SDS011;57473;37.508;15.080;2022-08-19T08:08:16;22.77;;;7.13;;
70106;SDS011;57473;37.508;15.080;2022-08-19T08:11:10;26.40;;;7.05;;
70106;SDS011;57473;37.508;15.080;2022-08-19T08:13:41;24.13;;;7.45;;
70106;SDS011;57473;37.508;15.080;2022-08-19T08:16:09;25.58;;;6.70;;
70106;SDS011;57473;37.508;15.080;2022-08-19T08:21:16;28.48;;;7.95;;
70106;SDS011;57473;37.508;15.080;2022-08-19T08:23:43;27.88;;;7.60;;
70106;SDS011;57473;37.508;15.080;2022-08-19T08:26:11;23.20;;;7.15;;
70106;SDS011;57473;37.508;15.080;2022-08-19T08:28:41;30.50;;;7.60;;
70106;SDS011;57473;37.508;15.080;2022-08-19T08:31:13;27.52;;;7.72;;
70106;SDS011;57473;37.508;15.080;2022-08-19T08:33:41;19.75;;;7.53;;
70106;SDS011;57473;37.508;15.080;2022-08-19T08:36:08;25.05;;;7.32;;
70106;SDS011;57473;37.508;15.080;2022-08-19T08:38:37;23.38;;;7.75;;
70106;SDS011;57473;37.508;15.080;2022-08-19T08:44:11;22.70;;;7.43;;
70106;SDS011;57473;37.508;15.080;2022-08-19T08:46:53;22.13;;;7.18;;
70106;SDS011;57473;37.508;15.080;2022-08-19T08:52:10;23.00;;;6.70;;
70106;SDS011;57473;37.508;15.080;2022-08-19T08:54:43;26.50;;;7.07;;
70106;SDS011;57473;37.508;15.080;2022-08-19T08:57:26;22.80;;;7.00;;
70106;SDS011;57473;37.508;15.080;2022-08-19T09:00:21;25.58;;;6.65;;
70106;SDS011;57473;37.508;15.080;2022-08-19T09:02:59;20.33;;;7.20;;
70106;SDS011;57473;37.508;15.080;2022-08-19T09:08:33;25.27;;;7.63;;
70106;SDS011;57473;37.508;15.080;2022-08-19T09:11:25;23.08;;;8.18;;
70106;SDS011;57473;37.508;15.080;2022-08-19T09:14:29;24.98;;;7.43;;
70106;SDS011;57473;37.508;15.080;2022-08-19T09:17:18;28.02;;;7.28;;
70106;SDS011;57473;37.508;15.080;2022-08-19T09:22:31;28.25;;;7.80;;
70106;SDS011;57473;37.508;15.080;2022-08-19T09:24:59;26.23;;;6.97;;
70106;SDS011;57473;37.508;15.080;2022-08-19T09:27:28;22.38;;;7.30;;
70106;SDS011;57473;37.508;15.080;2022-08-19T09:30:30;27.80;;;8.30;;
70106;SDS011;57473;37.508;15.080;2022-08-19T09:32:58;29.05;;;6.93;;
70106;SDS011;57473;37.508;15.080;2022-08-19T09:35:28;30.05;;;7.78;;
70106;SDS011;57473;37.508;15.080;2022-08-19T09:37:56;27.60;;;8.55;;
70106;SDS011;57473;37.508;15.080;2022-08-19T09:40:29;27.55;;;8.80;;
70106;SDS011;57473;37.508;15.080;2022-08-19T09:43:03;28.48;;;7.88;;
70106;SDS011;57473;37.508;15.080;2022-08-19T09:45:39;30.55;;;7.75;;
70106;SDS011;57473;37.508;15.080;2022-08-19T09:48:07;28.45;;;8.13;;
70106;SDS011;57473;37.508;15.080;2022-08-19T09:50:37;32.15;;;8.48;;
70106;SDS011;57473;37.508;15.080;2022-08-19T09:53:18;28.15;;;8.05;;
70106;SDS011;57473;37.508;15.080;2022-08-19T09:55:45;27.00;;;7.65;;
70106;SDS011;57473;37.508;15.080;2022-08-19T09:58:13;30.17;;;8.15;;
70106;SDS011;57473;37.508;15.080;2022-08-19T10:00:40;24.10;;;7.15;;
70106;SDS011;57473;37.508;15.080;2022-08-19T10:03:07;23.38;;;7.32;;
70106;SDS011;57473;37.508;15.080;2022-08-19T10:05:36;25.73;;;6.95;;
70106;SDS011;57473;37.508;15.080;2022-08-19T10:08:22;22.20;;;7.30;;
70106;SDS011;57473;37.508;15.080;2022-08-19T10:10:53;21.30;;;6.93;;
70106;SDS011;57473;37.508;15.080;2022-08-19T10:13:24;23.77;;;7.30;;
70106;SDS011;57473;37.508;15.080;2022-08-19T10:15:55;24.45;;;6.93;;
70106;SDS011;57473;37.508;15.080;2022-08-19T10:18:29;28.00;;;7.25;;
70106;SDS011;57473;37.508;15.080;2022-08-19T10:21:07;26.40;;;7.65;;
70106;SDS011;57473;37.508;15.080;2022-08-19T10:23:38;23.77;;;7.65;;
70106;SDS011;57473;37.508;15.080;2022-08-19T10:26:12;29.83;;;7.68;;
70106;SDS011;57473;37.508;15.080;2022-08-19T10:28:44;23.48;;;7.00;;
70106;SDS011;57473;37.508;15.080;2022-08-19T10:31:13;28.15;;;8.07;;
70106;SDS011;57473;37.508;15.080;2022-08-19T10:34:06;22.83;;;8.57;;
70106;SDS011;57473;37.508;15.080;2022-08-19T10:36:52;30.35;;;7.40;;
70106;SDS011;57473;37.508;15.080;2022-08-19T10:39:26;27.85;;;7.60;;
70106;SDS011;57473;37.508;15.080;2022-08-19T10:42:09;25.27;;;7.07;;
70106;SDS011;57473;37.508;15.080;2022-08-19T10:44:37;24.35;;;7.70;;
70106;SDS011;57473;37.508;15.080;2022-08-19T10:47:04;26.05;;;7.97;;
70106;SDS011;57473;37.508;15.080;2022-08-19T10:49:53;28.73;;;7.60;;
70106;SDS011;57473;37.508;15.080;2022-08-19T10:52:40;20.70;;;6.72;;
70106;SDS011;57473;37.508;15.080;2022-08-19T10:55:20;19.35;;;6.82;;
70106;SDS011;57473;37.508;15.080;2022-08-19T10:58:14;28.20;;;7.28;;
70106;SDS011;57473;37.508;15.080;2022-08-19T11:00:43;27.15;;;7.78;;
70106;SDS011;57473;37.508;15.080;2022-08-19T11:03:24;29.05;;;7.72;;
70106;SDS011;57473;37.508;15.080;2022-08-19T11:06:01;23.67;;;7.38;;
70106;SDS011;57473;37.508;15.080;2022-08-19T11:08:32;26.48;;;6.82;;
70106;SDS011;57473;37.508;15.080;2022-08-19T11:11:01;24.33;;;6.93;;
70106;SDS011;57473;37.508;15.080;2022-08-19T11:13:30;23.65;;;8.07;;
70106;SDS011;57473;37.508;15.080;2022-08-19T11:16:00;19.10;;;6.40;;
70106;SDS011;57473;37.508;15.080;2022-08-19T11:18:37;21.85;;;6.50;;
70106;SDS011;57473;37.508;15.080;2022-08-19T11:21:07;23.70;;;7.15;;
70106;SDS011;57473;37.508;15.080;2022-08-19T11:23:55;25.05;;;6.40;;
70106;SDS011;57473;37.508;15.080;2022-08-19T11:26:25;23.23;;;6.72;;
70106;SDS011;57473;37.508;15.080;2022-08-19T11:28:54;23.58;;;6.18;;
70106;SDS011;57473;37.508;15.080;2022-08-19T11:31:24;25.02;;;6.32;;
70106;SDS011;57473;37.508;15.080;2022-08-19T11:33:57;21.25;;;7.93;;
70106;SDS011;57473;37.508;15.080;2022-08-19T11:36:26;19.25;;;6.40;;
70106;SDS011;57473;37.508;15.080;2022-08-19T11:38:54;24.05;;;6.50;;
70106;SDS011;57473;37.508;15.080;2022-08-19T11:41:22;19.27;;;6.93;;
70106;SDS011;57473;37.508;15.080;2022-08-19T11:43:51;17.63;;;6.10;;
70106;SDS011;57473;37.508;15.080;2022-08-19T11:46:23;22.05;;;6.07;;
70106;SDS011;57473;37.508;15.080;2022-08-19T11:48:52;23.15;;;6.32;;
70106;SDS011;57473;37.508;15.080;2022-08-19T11:51:21;23.58;;;5.75;;
70106;SDS011;57473;37.508;15.080;2022-08-19T11:53:51;19.73;;;5.93;;
70106;SDS011;57473;37.508;15.080;2022-08-19T11:56:23;19.73;;;6.30;;
70106;SDS011;57473;37.508;15.080;2022-08-19T11:58:52;23.85;;;6.18;;
70106;SDS011;57473;37.508;15.080;2022-08-19T12:01:23;19.15;;;5.57;;
70106;SDS011;57473;37.508;15.080;2022-08-19T12:03:52;23.17;;;5.93;;
70106;SDS011;57473;37.508;15.080;2022-08-19T12:06:22;21.33;;;6.10;;
70106;SDS011;57473;37.508;15.080;2022-08-19T12:09:03;24.77;;;6.10;;
70106;SDS011;57473;37.508;15.080;2022-08-19T12:11:32;21.25;;;6.50;;
70106;SDS011;57473;37.508;15.080;2022-08-19T12:14:00;26.52;;;6.50;;
70106;SDS011;57473;37.508;15.080;2022-08-19T12:16:28;21.33;;;6.72;;
70106;SDS011;57473;37.508;15.080;2022-08-19T12:18:58;22.08;;;6.38;;
70106;SDS011;57473;37.508;15.080;2022-08-19T12:21:31;23.77;;;5.70;;
70106;SDS011;57473;37.508;15.080;2022-08-19T12:24:00;22.13;;;6.53;;
70106;SDS011;57473;37.508;15.080;2022-08-19T12:26:29;19.15;;;5.60;;
70106;SDS011;57473;37.508;15.080;2022-08-19T12:29:01;19.23;;;5.43;;
70106;SDS011;57473;37.508;15.080;2022-08-19T12:31:29;24.65;;;6.50;;
70106;SDS011;57473;37.508;15.080;2022-08-19T12:34:00;26.30;;;7.15;;
70106;SDS011;57473;37.508;15.080;2022-08-19T12:36:29;19.55;;;5.55;;
70106;SDS011;57473;37.508;15.080;2022-08-19T12:38:57;19.77;;;5.95;;
70106;SDS011;57473;37.508;15.080;2022-08-19T12:41:26;16.42;;;5.90;;
70106;SDS011;57473;37.508;15.080;2022-08-19T12:43:53;22.33;;;6.30;;
70106;SDS011;57473;37.508;15.080;2022-08-19T12:46:39;21.38;;;6.40;;
70106;SDS011;57473;37.508;15.080;2022-08-19T12:49:08;19.08;;;5.55;;
70106;SDS011;57473;37.508;15.080;2022-08-19T12:51:56;15.70;;;5.05;;
70106;SDS011;57473;37.508;15.080;2022-08-19T12:54:24;20.35;;;6.10;;
70106;SDS011;57473;37.508;15.080;2022-08-19T12:56:52;21.20;;;5.70;;
70106;SDS011;57473;37.508;15.080;2022-08-19T12:59:19;22.92;;;6.00;;
70106;SDS011;57473;37.508;15.080;2022-08-19T13:01:47;15.50;;;5.45;;
70106;SDS011;57473;37.508;15.080;2022-08-19T13:04:14;17.48;;;5.80;;
70106;SDS011;57473;37.508;15.080;2022-08-19T13:06:42;18.70;;;5.43;;
70106;SDS011;57473;37.508;15.080;2022-08-19T13:09:10;20.77;;;5.70;;
70106;SDS011;57473;37.508;15.080;2022-08-19T13:11:37;25.65;;;6.32;;
70106;SDS011;57473;37.508;15.080;2022-08-19T13:14:05;20.48;;;6.10;;
70106;SDS011;57473;37.508;15.080;2022-08-19T13:16:32;19.67;;;6.07;;
70106;SDS011;57473;37.508;15.080;2022-08-19T13:19:00;21.52;;;5.90;;
70106;SDS011;57473;37.508;15.080;2022-08-19T13:21:29;21.10;;;6.63;;
70106;SDS011;57473;37.508;15.080;2022-08-19T13:23:57;20.98;;;6.30;;
70106;SDS011;57473;37.508;15.080;2022-08-19T13:26:25;25.67;;;7.13;;
70106;SDS011;57473;37.508;15.080;2022-08-19T13:28:52;17.75;;;5.80;;
70106;SDS011;57473;37.508;15.080;2022-08-19T13:31:39;27.42;;;6.40;;
70106;SDS011;57473;37.508;15.080;2022-08-19T13:34:33;16.85;;;5.20;;
70106;SDS011;57473;37.508;15.080;2022-08-19T13:37:03;25.73;;;6.00;;
70106;SDS011;57473;37.508;15.080;2022-08-19T13:39:32;16.92;;;5.28;;
70106;SDS011;57473;37.508;15.080;2022-08-19T13:42:00;22.67;;;5.68;;
70106;SDS011;57473;37.508;15.080;2022-08-19T13:44:28;16.85;;;5.68;;
70106;SDS011;57473;37.508;15.080;2022-08-19T13:47:02;21.10;;;5.85;;
70106;SDS011;57473;37.508;15.080;2022-08-19T13:49:34;28.15;;;6.28;;
70106;SDS011;57473;37.508;15.080;2022-08-19T13:52:03;23.17;;;6.40;;
70106;SDS011;57473;37.508;15.080;2022-08-19T13:54:32;20.08;;;5.90;;
70106;SDS011;57473;37.508;15.080;2022-08-19T13:56:59;23.75;;;6.75;;
70106;SDS011;57473;37.508;15.080;2022-08-19T13:59:26;24.92;;;6.18;;
70106;SDS011;57473;37.508;15.080;2022-08-19T14:01:57;23.00;;;5.65;;
70106;SDS011;57473;37.508;15.080;2022-08-19T14:04:26;22.80;;;6.32;;
70106;SDS011;57473;37.508;15.080;2022-08-19T14:06:53;18.60;;;5.30;;
70106;SDS011;57473;37.508;15.080;2022-08-19T14:09:21;22.33;;;5.95;;
70106;SDS011;57473;37.508;15.080;2022-08-19T14:11:49;26.90;;;6.82;;
70106;SDS011;57473;37.508;15.080;2022-08-19T14:14:17;20.92;;;5.78;;
70106;SDS011;57473;37.508;15.080;2022-08-19T14:16:44;27.45;;;6.55;;
70106;SDS011;57473;37.508;15.080;2022-08-19T14:19:12;26.02;;;6.43;;
70106;SDS011;57473;37.508;15.080;2022-08-19T14:21:39;22.27;;;6.00;;
70106;SDS011;57473;37.508;15.080;2022-08-19T14:24:08;23.10;;;6.35;;
70106;SDS011;57473;37.508;15.080;2022-08-19T14:26:36;25.75;;;6.32;;
70106;SDS011;57473;37.508;15.080;2022-08-19T14:29:05;24.85;;;6.78;;
70106;SDS011;57473;37.508;15.080;2022-08-19T14:31:32;24.20;;;6.63;;
70106;SDS011;57473;37.508;15.080;2022-08-19T14:33:59;25.88;;;6.38;;
70106;SDS011;57473;37.508;15.080;2022-08-19T14:36:26;19.63;;;5.80;;
70106;SDS011;57473;37.508;15.080;2022-08-19T14:38:54;26.73;;;7.35;;
70106;SDS011;57473;37.508;15.080;2022-08-19T14:41:22;32.63;;;6.40;;
70106;SDS011;57473;37.508;15.080;2022-08-19T14:43:50;21.77;;;6.60;;
70106;SDS011;57473;37.508;15.080;2022-08-19T14:46:19;22.30;;;6.55;;
70106;SDS011;57473;37.508;15.080;2022-08-19T14:48:55;24.25;;;6.57;;
70106;SDS011;57473;37.508;15.080;2022-08-19T14:51:25;28.83;;;6.30;;
70106;SDS011;57473;37.508;15.080;2022-08-19T14:53:53;29.60;;;7.40;;
70106;SDS011;57473;37.508;15.080;2022-08-19T14:56:22;28.08;;;6.43;;
70106;SDS011;57473;37.508;15.080;2022-08-19T14:58:52;31.60;;;7.70;;
70106;SDS011;57473;37.508;15.080;2022-08-19T15:01:20;27.70;;;6.43;;
70106;SDS011;57473;37.508;15.080;2022-08-19T15:03:51;27.63;;;7.00;;
70106;SDS011;57473;37.508;15.080;2022-08-19T15:06:22;22.15;;;6.60;;
70106;SDS011;57473;37.508;15.080;2022-08-19T15:08:50;28.77;;;7.00;;
70106;SDS011;57473;37.508;15.080;2022-08-19T15:11:18;21.85;;;7.47;;